createdAt,value
2019-06-07T00:00:48.419Z,16.03
2019-06-07T00:03:27.605Z,16.93
2019-06-07T00:05:45.556Z,16.73
2019-06-07T00:08:22.504Z,16.20
2019-06-07T00:10:42.826Z,15.60
2019-06-07T00:13:12.888Z,16.13
2019-06-07T00:15:40.011Z,16.50
2019-06-07T00:18:11.136Z,15.87
2019-06-07T00:20:37.186Z,16.57
2019-06-07T00:23:05.766Z,15.77
2019-06-07T00:25:34.300Z,16.63
2019-06-07T00:28:02.846Z,17.60
2019-06-07T00:30:50.160Z,17.17
2019-06-07T00:33:00.407Z,16.47
2019-06-07T00:35:29.039Z,17.07
2019-06-07T00:37:57.754Z,17.00
2019-06-07T00:40:31.819Z,18.13
2019-06-07T00:42:55.127Z,17.10
2019-06-07T00:45:24.793Z,17.50
2019-06-07T00:47:52.242Z,17.37
2019-06-07T00:50:24.140Z,18.57
2019-06-07T00:55:20.631Z,17.27
2019-06-07T00:57:47.247Z,17.43
2019-06-07T01:00:18.347Z,17.57
2019-06-07T01:02:44.925Z,19.73
2019-06-07T01:05:15.945Z,18.67
2019-06-07T01:07:42.162Z,19.00
2019-06-07T01:10:13.670Z,18.57
2019-06-07T01:12:40.559Z,18.30
2019-06-07T01:15:09.171Z,18.30
2019-06-07T01:17:50.135Z,20.20
2019-06-07T01:20:06.752Z,18.10
2019-06-07T01:22:35.374Z,17.07
2019-06-07T01:25:04.011Z,15.87
2019-06-07T01:27:32.575Z,17.17
2019-06-07T01:30:01.385Z,17.37
2019-06-07T01:32:31.833Z,16.30
2019-06-07T01:34:58.957Z,16.13
2019-06-07T01:37:28.460Z,16.13
2019-06-07T01:39:56.152Z,16.13
2019-06-07T01:42:28.858Z,17.00
2019-06-07T01:44:53.292Z,15.83
2019-06-07T01:47:25.540Z,17.57
2019-06-07T01:49:50.363Z,16.60
2019-06-07T01:52:19.546Z,16.67
2019-06-07T01:54:58.050Z,14.83
2019-06-07T01:57:36.592Z,16.17
2019-06-07T01:59:44.662Z,16.53
2019-06-07T02:02:13.195Z,16.33
2019-06-07T02:04:41.925Z,16.33
2019-06-07T02:07:10.790Z,15.63
2019-06-07T02:09:39.337Z,14.77
2019-06-07T02:12:25.092Z,15.70
2019-06-07T02:14:36.475Z,15.63
2019-06-07T02:17:05.222Z,14.80
2019-06-07T02:19:33.824Z,14.33
2019-06-07T02:22:02.500Z,13.97
2019-06-07T02:24:34.616Z,14.10
2019-06-07T02:26:59.586Z,14.30
2019-06-07T02:29:31.417Z,14.23
2019-06-07T02:31:56.866Z,12.83
2019-06-07T02:34:28.122Z,14.43
2019-06-07T02:36:54.089Z,13.40
2019-06-07T02:39:23.982Z,13.47
2019-06-07T02:41:51.222Z,12.83
2019-06-07T02:44:19.774Z,12.30
2019-06-07T02:46:49.972Z,12.50
2019-06-07T02:49:17.107Z,12.73
2019-06-07T02:51:45.683Z,12.17
2019-06-07T02:54:14.519Z,12.27
2019-06-07T02:56:56.789Z,11.97
2019-06-07T02:59:11.920Z,12.47
2019-06-07T03:01:42.559Z,11.00
2019-06-07T03:04:09.267Z,11.67
2019-06-07T03:06:43.249Z,11.43
2019-06-07T03:09:08.608Z,11.20
2019-06-07T03:11:38.940Z,11.03
2019-06-07T03:14:05.926Z,10.67
2019-06-07T03:16:39.154Z,10.93
2019-06-07T03:19:11.009Z,11.23
2019-06-07T03:21:42.380Z,10.63
2019-06-07T03:24:10.945Z,11.17
2019-06-07T03:27:31.420Z,10.67
2019-06-07T03:29:08.436Z,10.23
2019-06-07T03:31:41.713Z,10.27
2019-06-07T03:34:05.627Z,10.73
2019-06-07T03:36:35.466Z,10.80
2019-06-07T03:39:03.179Z,10.53
2019-06-07T03:41:38.629Z,9.07
2019-06-07T03:44:00.550Z,10.27
2019-06-07T03:46:30.118Z,10.17
2019-06-07T03:48:57.663Z,10.00
2019-06-07T03:51:27.386Z,9.57
2019-06-07T03:53:54.890Z,9.73
2019-06-07T03:56:23.415Z,9.63
2019-06-07T03:58:51.974Z,9.90
2019-06-07T04:01:20.707Z,9.73
2019-06-07T04:03:51.793Z,9.83
2019-06-07T04:06:17.884Z,10.53
2019-06-07T04:08:46.467Z,9.90
2019-06-07T04:11:15.194Z,9.50
2019-06-07T04:13:43.857Z,9.37
2019-06-07T04:16:12.515Z,10.07
2019-06-07T04:18:42.508Z,9.33
2019-06-07T04:21:09.782Z,10.27
2019-06-07T04:23:44.925Z,9.80
2019-06-07T04:26:07.183Z,9.83
2019-06-07T04:29:30.229Z,9.63
2019-06-07T04:31:04.374Z,9.23
2019-06-07T04:33:37.066Z,8.97
2019-06-07T04:36:01.726Z,9.57
2019-06-07T04:38:32.689Z,9.10
2019-06-07T04:40:59.378Z,8.80
2019-06-07T04:43:31.037Z,10.60
2019-06-07T04:45:56.650Z,10.03
2019-06-07T04:48:25.270Z,10.77
2019-06-07T04:50:53.891Z,9.63
2019-06-07T04:53:22.426Z,10.00
2019-06-07T04:55:50.975Z,9.30
2019-06-07T04:58:19.563Z,9.17
2019-06-07T05:00:54.129Z,8.97
2019-06-07T05:03:16.833Z,9.23
2019-06-07T05:05:45.358Z,8.80
2019-06-07T05:08:27.580Z,9.17
2019-06-07T05:10:43.887Z,9.43
2019-06-07T05:13:11.291Z,8.53
2019-06-07T05:15:42.040Z,8.63
2019-06-07T05:18:08.427Z,9.00
2019-06-07T05:20:38.546Z,8.17
2019-06-07T05:23:05.603Z,9.40
2019-06-07T05:25:36.468Z,8.13
2019-06-07T05:28:03.108Z,9.03
2019-06-07T05:31:01.929Z,7.80
2019-06-07T05:33:02.412Z,8.33
2019-06-07T05:35:31.223Z,8.17
2019-06-07T05:37:59.834Z,7.60
2019-06-07T05:40:34.933Z,8.53
2019-06-07T05:43:02.971Z,8.50
2019-06-07T05:45:37.643Z,7.77
2019-06-07T05:48:02.683Z,7.40
2019-06-07T05:50:42.619Z,7.57
2019-06-07T05:52:59.195Z,8.27
2019-06-07T05:55:27.933Z,7.43
2019-06-07T05:57:56.508Z,7.87
2019-06-07T06:00:25.223Z,7.50
2019-06-07T06:03:04.825Z,7.50
2019-06-07T06:05:33.689Z,7.83
2019-06-07T06:07:51.135Z,7.60
2019-06-07T06:10:19.618Z,7.90
2019-06-07T06:12:51.724Z,7.17
2019-06-07T06:15:16.850Z,7.00
2019-06-07T06:17:48.939Z,7.17
2019-06-07T06:20:14.247Z,6.67
2019-06-07T06:22:44.807Z,6.80
2019-06-07T06:30:09.478Z,7.07
2019-06-07T06:32:49.294Z,7.30
2019-06-07T06:35:07.055Z,7.13
2019-06-07T06:37:38.038Z,7.13
2019-06-07T06:40:05.510Z,6.73
2019-06-07T06:42:34.691Z,6.33
2019-06-07T06:45:12.631Z,6.23
2019-06-07T06:47:43.143Z,6.73
2019-06-07T06:50:09.838Z,6.17
2019-06-07T06:52:42.327Z,6.93
2019-06-07T06:55:07.184Z,7.00
2019-06-07T06:57:35.726Z,6.37
2019-06-07T07:00:05.299Z,6.47
2019-06-07T07:02:33.841Z,5.87
2019-06-07T07:05:02.475Z,5.63
2019-06-07T07:07:31.121Z,6.30
2019-06-07T07:10:03.155Z,5.53
2019-06-07T07:12:31.422Z,5.60
2019-06-07T07:15:00.073Z,5.50
2019-06-07T07:17:47.630Z,5.37
2019-06-07T07:19:57.209Z,5.80
2019-06-07T07:22:25.730Z,5.70
2019-06-07T07:24:54.949Z,5.90
2019-06-07T07:27:23.127Z,5.40
2019-06-07T07:30:10.187Z,5.67
2019-06-07T07:32:20.357Z,5.80
2019-06-07T07:34:51.785Z,4.70
2019-06-07T07:37:17.589Z,5.00
2019-06-07T07:39:48.597Z,5.27
2019-06-07T07:42:21.124Z,5.00
2019-06-07T07:44:45.024Z,5.07
2019-06-07T07:47:12.441Z,4.80
2019-06-07T07:49:41.041Z,4.50
2019-06-07T07:52:09.603Z,4.80
2019-06-07T07:54:38.172Z,4.40
2019-06-07T07:57:06.743Z,4.70
2019-06-07T07:59:42.233Z,4.50
2019-06-07T08:02:04.055Z,5.03
2019-06-07T08:05:12.750Z,3.60
2019-06-07T08:07:01.600Z,3.33
2019-06-07T08:09:30.204Z,3.52
2019-06-07T08:12:01.934Z,3.30
2019-06-07T08:14:27.283Z,3.20
2019-06-07T08:16:57.892Z,2.90
2019-06-07T08:19:24.374Z,2.87
2019-06-07T08:21:53.104Z,2.50
2019-06-07T08:24:21.493Z,2.80
2019-06-07T08:27:10.487Z,2.67
2019-06-07T08:29:18.763Z,2.85
2019-06-07T08:31:48.298Z,2.50
2019-06-07T08:34:15.914Z,2.50
2019-06-07T08:36:44.429Z,3.20
2019-06-07T08:39:13.111Z,3.20
2019-06-07T08:41:53.814Z,3.37
2019-06-07T08:44:23.379Z,3.30
2019-06-07T08:46:39.272Z,3.58
2019-06-07T08:49:07.943Z,3.60
2019-06-07T08:51:36.475Z,3.50
2019-06-07T08:54:21.489Z,3.70
2019-06-07T08:56:33.630Z,3.98
2019-06-07T08:59:10.731Z,3.05
2019-06-07T09:01:30.758Z,3.70
2019-06-07T09:04:02.615Z,3.70
2019-06-07T09:07:01.767Z,3.55
2019-06-07T09:09:00.276Z,3.75
2019-06-07T09:11:25.127Z,3.20
2019-06-07T09:13:54.481Z,3.22
2019-06-07T09:16:22.365Z,3.70
2019-06-07T09:18:50.947Z,3.75
2019-06-07T09:21:19.880Z,3.87
2019-06-07T09:23:48.430Z,3.58
2019-06-07T09:26:18.956Z,3.17
2019-06-07T09:28:45.667Z,3.52
2019-06-07T09:31:14.237Z,3.30
2019-06-07T09:33:42.792Z,3.17
2019-06-07T09:36:13.178Z,3.85
2019-06-07T09:38:39.973Z,4.30
2019-06-07T09:41:09.788Z,3.42
2019-06-07T09:46:12.940Z,3.62
2019-06-07T09:49:09.948Z,3.55
2019-06-07T09:51:09.689Z,3.20
2019-06-07T09:53:32.007Z,3.95
2019-06-07T09:56:03.573Z,3.70
2019-06-07T10:01:02.073Z,3.60
2019-06-07T10:03:26.539Z,4.00
2019-06-07T10:05:55.049Z,3.57
2019-06-07T10:09:42.295Z,3.73
2019-06-07T10:10:52.163Z,3.03
2019-06-07T10:13:20.710Z,3.17
2019-06-07T10:15:49.452Z,3.12
2019-06-07T10:18:18.015Z,3.33
2019-06-07T10:20:46.571Z,3.20
2019-06-07T10:23:15.182Z,3.20
2019-06-07T10:25:43.880Z,3.72
2019-06-07T10:28:12.280Z,3.60
2019-06-07T10:30:40.854Z,3.72
2019-06-07T10:33:10.472Z,3.67
2019-06-07T10:35:38.309Z,3.98
2019-06-07T10:38:06.940Z,4.00
2019-06-07T10:40:35.646Z,4.25
2019-06-07T10:43:05.053Z,3.37
2019-06-07T10:45:33.376Z,4.50
2019-06-07T10:48:03.450Z,5.33
2019-06-07T10:50:31.008Z,4.40
2019-06-07T10:52:59.544Z,4.90
2019-06-07T10:55:28.094Z,4.87
2019-06-07T10:57:56.629Z,5.80
2019-06-07T11:00:25.522Z,5.12
2019-06-07T11:02:55.197Z,5.85
2019-06-07T11:05:22.659Z,5.33
2019-06-07T11:07:51.668Z,5.10
2019-06-07T11:10:20.452Z,5.33
2019-06-07T11:12:48.719Z,5.30
2019-06-07T11:15:17.308Z,5.90
2019-06-07T11:17:45.827Z,6.00
2019-06-07T11:20:14.534Z,6.47
2019-06-07T11:22:43.027Z,6.27
2019-06-07T11:25:12.841Z,7.77
2019-06-07T11:27:40.287Z,6.27
2019-06-07T11:30:10.342Z,5.90
2019-06-07T11:32:37.485Z,5.83
2019-06-07T11:35:06.398Z,5.53
2019-06-07T11:37:34.783Z,6.50
2019-06-07T11:40:03.575Z,6.03
2019-06-07T11:42:32.255Z,6.17
2019-06-07T11:45:00.970Z,6.17
2019-06-07T11:47:35.527Z,6.67
2019-06-07T11:50:04.722Z,6.07
2019-06-07T11:52:33.462Z,5.50
2019-06-07T11:55:02.003Z,6.17
2019-06-07T11:57:30.531Z,5.77
2019-06-07T11:59:59.066Z,5.37
2019-06-07T12:02:27.603Z,5.70
2019-06-07T12:04:56.138Z,6.58
2019-06-07T12:07:24.664Z,5.47
2019-06-07T12:09:56.696Z,5.60
2019-06-07T12:12:21.782Z,6.17
2019-06-07T12:14:50.374Z,6.00
2019-06-07T12:17:19.592Z,5.78
2019-06-07T12:19:47.763Z,5.63
2019-06-07T12:22:16.347Z,6.00
2019-06-07T12:24:44.864Z,6.03
2019-06-07T12:27:14.600Z,6.20
2019-06-07T12:29:41.994Z,5.97
2019-06-07T12:32:11.212Z,5.50
2019-06-07T12:34:39.264Z,5.93
2019-06-07T12:37:07.862Z,5.77
2019-06-07T12:39:36.406Z,6.27
2019-06-07T12:42:05.017Z,6.17
2019-06-07T12:44:33.583Z,6.00
2019-06-07T12:47:02.127Z,5.70
2019-06-07T12:49:30.709Z,5.43
2019-06-07T12:51:59.214Z,6.20
2019-06-07T12:54:27.973Z,6.77
2019-06-07T12:56:56.499Z,6.30
2019-06-07T12:59:25.066Z,6.20
2019-06-07T13:01:53.578Z,7.23
2019-06-07T13:04:22.647Z,6.07
2019-06-07T13:06:51.153Z,6.43
2019-06-07T13:09:19.946Z,6.53
2019-06-07T13:11:48.302Z,7.07
2019-06-07T13:14:17.780Z,7.03
2019-06-07T13:16:45.402Z,6.63
2019-06-07T13:19:13.937Z,6.10
2019-06-07T13:21:42.473Z,6.23
2019-06-07T13:24:11.110Z,6.80
2019-06-07T13:26:39.834Z,7.25
2019-06-07T13:29:08.518Z,6.53
2019-06-07T13:31:37.063Z,5.93
2019-06-07T13:34:05.586Z,6.63
2019-06-07T13:36:34.255Z,6.27
2019-06-07T13:39:02.839Z,7.10
2019-06-07T13:41:41.810Z,6.73
2019-06-07T13:43:59.923Z,6.40
2019-06-07T13:46:28.455Z,6.90
2019-06-07T13:48:57.068Z,6.20
2019-06-07T13:51:26.945Z,6.70
2019-06-07T13:53:54.180Z,6.60
2019-06-07T13:56:23.958Z,7.00
2019-06-07T13:58:51.931Z,7.47
2019-06-07T14:01:20.492Z,6.30
2019-06-07T14:03:49.005Z,6.60
2019-06-07T14:06:18.820Z,5.73
2019-06-07T14:08:46.215Z,6.60
2019-06-07T14:11:14.934Z,6.73
2019-06-07T14:13:43.464Z,7.17
2019-06-07T14:16:12.035Z,6.70
2019-06-07T14:18:40.627Z,6.43
2019-06-07T14:21:09.338Z,7.17
2019-06-07T14:23:47.996Z,7.50
2019-06-07T14:26:06.486Z,7.20
2019-06-07T14:28:35.091Z,7.97
2019-06-07T14:31:03.643Z,7.40
2019-06-07T14:33:33.690Z,6.73
2019-06-07T14:36:00.927Z,6.27
2019-06-07T14:38:33.363Z,6.70
2019-06-07T14:40:58.238Z,6.30
2019-06-07T14:43:27.609Z,7.10
2019-06-07T14:45:55.506Z,6.57
2019-06-07T14:48:24.011Z,6.43
2019-06-07T14:50:52.539Z,6.13
2019-06-07T14:53:21.308Z,6.33
2019-06-07T14:55:49.840Z,6.50
2019-06-07T14:58:18.951Z,7.23
2019-06-07T15:00:47.700Z,6.70
2019-06-07T15:03:16.264Z,7.10
2019-06-07T15:05:44.811Z,6.33
2019-06-07T15:08:13.495Z,6.73
2019-06-07T15:10:42.063Z,6.43
2019-06-07T15:13:10.624Z,7.10
2019-06-07T15:15:39.228Z,6.57
2019-06-07T15:18:07.778Z,6.50
2019-06-07T15:20:36.459Z,6.83
2019-06-07T15:23:04.869Z,7.00
2019-06-07T15:25:33.630Z,7.17
2019-06-07T15:28:02.138Z,7.17
2019-06-07T15:30:31.620Z,6.83
2019-06-07T15:32:59.952Z,6.87
2019-06-07T15:35:28.115Z,6.90
2019-06-07T15:37:56.369Z,7.17
2019-06-07T15:40:25.126Z,6.67
2019-06-07T15:42:53.634Z,6.80
2019-06-07T15:45:22.505Z,7.97
2019-06-07T15:47:51.059Z,6.93
2019-06-07T15:50:19.687Z,7.93
2019-06-07T15:52:48.241Z,8.10
2019-06-07T15:55:16.882Z,7.80
2019-06-07T15:57:45.390Z,7.20
2019-06-07T16:00:14.264Z,8.03
2019-06-07T16:02:42.835Z,7.67
2019-06-07T16:05:11.474Z,8.00
2019-06-07T16:07:40.467Z,8.57
2019-06-07T16:10:08.775Z,7.53
2019-06-07T16:12:38.676Z,7.13
2019-06-07T16:15:07.064Z,7.80
2019-06-07T16:17:37.175Z,7.73
2019-06-07T16:20:05.256Z,7.93
2019-06-07T16:22:33.790Z,7.57
2019-06-07T16:25:02.392Z,7.10
2019-06-07T16:27:30.967Z,8.20
2019-06-07T16:29:59.502Z,7.87
2019-06-07T16:32:28.042Z,7.70
2019-06-07T16:34:56.603Z,8.03
2019-06-07T16:37:25.145Z,8.20
2019-06-07T16:39:53.929Z,7.90
2019-06-07T16:42:22.486Z,7.73
2019-06-07T16:44:51.266Z,8.13
2019-06-07T16:47:19.955Z,8.33
2019-06-07T16:49:49.228Z,8.10
2019-06-07T16:52:17.202Z,7.90
2019-06-07T16:54:45.925Z,7.67
2019-06-07T16:57:14.415Z,8.03
2019-06-07T16:59:46.770Z,8.13
2019-06-07T17:02:11.719Z,7.67
2019-06-07T17:04:41.501Z,7.73
2019-06-07T17:07:08.824Z,7.57
2019-06-07T17:09:38.157Z,7.63
2019-06-07T17:12:05.925Z,8.83
2019-06-07T17:14:34.475Z,8.90
2019-06-07T17:17:02.999Z,8.90
2019-06-07T17:19:31.515Z,8.97
2019-06-07T17:22:00.045Z,8.70
2019-06-07T17:24:28.740Z,10.70
2019-06-07T17:26:57.277Z,13.10
2019-06-07T17:29:25.792Z,16.30
2019-06-07T17:31:54.299Z,18.57
2019-06-07T17:34:22.857Z,9.00
2019-06-07T17:36:51.363Z,9.33
2019-06-07T17:39:19.890Z,8.33
2019-06-07T17:42:00.027Z,8.10
2019-06-07T17:44:17.152Z,8.60
2019-06-07T17:46:45.669Z,8.43
2019-06-07T17:49:14.185Z,8.20
2019-06-07T17:51:44.115Z,8.87
2019-06-07T17:54:11.442Z,9.03
2019-06-07T17:56:39.976Z,9.07
2019-06-07T17:59:08.505Z,9.07
2019-06-07T18:01:41.600Z,9.23
2019-06-07T18:04:06.488Z,8.83
2019-06-07T18:06:35.431Z,8.97
2019-06-07T18:09:04.716Z,8.70
2019-06-07T18:11:33.315Z,8.57
2019-06-07T18:14:10.008Z,9.20
2019-06-07T18:16:30.514Z,9.37
2019-06-07T18:18:59.167Z,9.73
2019-06-07T18:21:27.681Z,9.70
2019-06-07T18:23:56.265Z,9.00
2019-06-07T18:26:24.820Z,8.37
2019-06-07T18:28:54.610Z,8.97
2019-06-07T18:31:21.930Z,9.43
2019-06-07T18:33:50.945Z,8.50
2019-06-07T18:36:19.138Z,9.03
2019-06-07T18:38:48.956Z,8.80
2019-06-07T18:41:16.463Z,9.57
2019-06-07T18:43:44.979Z,9.80
2019-06-07T18:46:13.527Z,9.47
2019-06-07T18:48:42.045Z,8.80
2019-06-07T18:51:22.573Z,9.33
2019-06-07T18:53:51.650Z,9.87
2019-06-07T18:56:19.827Z,9.10
2019-06-07T18:58:49.121Z,9.90
2019-06-07T19:01:23.203Z,10.10
2019-06-07T19:03:52.094Z,9.90
2019-06-07T19:06:20.983Z,10.10
2019-06-07T19:08:53.120Z,10.27
2019-06-07T19:11:18.115Z,10.50
2019-06-07T19:13:46.847Z,10.50
2019-06-07T19:16:15.560Z,11.17
2019-06-07T19:18:44.091Z,10.83
2019-06-07T19:21:12.899Z,10.93
2019-06-07T19:23:41.637Z,10.60
2019-06-07T19:26:10.172Z,11.30
2019-06-07T19:28:38.683Z,11.30
2019-06-07T19:31:07.211Z,11.03
2019-06-07T19:33:48.463Z,10.83
2019-06-07T19:36:04.716Z,11.70
2019-06-07T19:38:33.390Z,11.23
2019-06-07T19:41:17.609Z,11.33
2019-06-07T19:43:30.643Z,10.70
2019-06-07T19:46:00.296Z,10.67
2019-06-07T19:48:27.753Z,11.80
2019-06-07T19:50:56.849Z,12.30
2019-06-07T19:53:24.995Z,12.00
2019-06-07T19:55:53.506Z,13.70
2019-06-07T19:58:22.293Z,12.37
2019-06-07T20:00:50.943Z,12.33
2019-06-07T20:03:19.479Z,11.73
2019-06-07T20:05:48.015Z,11.53
2019-06-07T20:08:17.251Z,12.13
2019-06-07T20:10:45.802Z,13.27
2019-06-07T20:13:14.371Z,13.17
2019-06-07T20:15:42.918Z,12.83
2019-06-07T20:18:11.776Z,13.27
2019-06-07T20:20:40.310Z,13.23
2019-06-07T20:23:09.341Z,13.00
2019-06-07T20:25:37.530Z,12.53
2019-06-07T20:28:06.111Z,13.63
2019-06-07T20:30:34.892Z,13.50
2019-06-07T20:33:03.955Z,14.63
2019-06-07T20:35:32.114Z,13.53
2019-06-07T20:38:01.148Z,14.33
2019-06-07T20:40:29.615Z,14.63
2019-06-07T20:42:59.349Z,15.13
2019-06-07T20:45:33.481Z,14.97
2019-06-07T20:47:55.583Z,14.67
2019-06-07T20:50:24.125Z,14.23
2019-06-07T20:52:52.675Z,14.17
2019-06-07T20:55:21.225Z,14.33
2019-06-07T20:57:49.794Z,14.13
2019-06-07T21:00:22.169Z,14.20
2019-06-07T21:02:47.123Z,13.50
2019-06-07T21:05:15.882Z,14.40
2019-06-07T21:07:44.394Z,14.70
2019-06-07T21:10:13.824Z,14.00
2019-06-07T21:12:42.569Z,13.80
2019-06-07T21:15:14.296Z,13.13
2019-06-07T21:17:40.284Z,12.67
2019-06-07T21:20:13.550Z,13.87
2019-06-07T21:22:37.104Z,13.03
2019-06-07T21:25:07.239Z,13.40
2019-06-07T21:27:34.615Z,12.07
2019-06-07T21:30:03.491Z,11.50
2019-06-07T21:32:31.861Z,11.97
2019-06-07T21:35:01.778Z,10.50
2019-06-07T21:37:29.080Z,11.77
2019-06-07T21:39:57.586Z,10.73
2019-06-07T21:42:26.094Z,10.90
2019-06-07T21:44:54.600Z,10.27
2019-06-07T21:47:23.131Z,10.60
2019-06-07T21:49:51.661Z,10.50
2019-06-07T21:52:20.266Z,10.30
2019-06-07T21:54:48.810Z,12.37
2019-06-07T21:57:17.343Z,10.57
2019-06-07T21:59:45.899Z,10.20
2019-06-07T22:02:14.736Z,11.60
2019-06-07T22:04:43.319Z,11.87
2019-06-07T22:07:11.842Z,11.47
2019-06-07T22:09:40.378Z,11.53
2019-06-07T22:12:10.132Z,10.63
2019-06-07T22:14:38.185Z,11.97
2019-06-07T22:17:08.163Z,11.73
2019-06-07T22:19:35.607Z,11.53
2019-06-07T22:22:05.217Z,12.43
2019-06-07T22:24:32.818Z,12.23
2019-06-07T22:27:01.336Z,12.43
2019-06-07T22:29:29.865Z,12.63
2019-06-07T22:31:58.401Z,13.80
2019-06-07T22:34:26.930Z,12.40
2019-06-07T22:36:55.450Z,12.27
2019-06-07T22:39:24.005Z,13.83
2019-06-07T22:41:52.575Z,12.47
2019-06-07T22:44:21.085Z,12.70
2019-06-07T22:46:49.771Z,12.17
2019-06-07T22:49:19.523Z,10.77
2019-06-07T22:51:46.855Z,12.23
2019-06-07T22:54:16.097Z,12.37
2019-06-07T22:56:48.344Z,11.33
2019-06-07T22:59:18.831Z,12.40
2019-06-07T23:01:45.520Z,11.93
2019-06-07T23:04:14.576Z,10.83
2019-06-07T23:06:42.584Z,11.53
2019-06-07T23:09:11.116Z,12.37
2019-06-07T23:11:39.642Z,12.23
2019-06-07T23:14:09.212Z,11.60
2019-06-07T23:16:54.011Z,12.33
2019-06-07T23:19:05.742Z,13.20
2019-06-07T23:21:34.270Z,11.87
2019-06-07T23:24:02.823Z,12.37
2019-06-07T23:26:31.391Z,12.40
2019-06-07T23:28:59.975Z,11.77
2019-06-07T23:31:28.517Z,13.30
2019-06-07T23:33:57.106Z,12.13
2019-06-07T23:36:25.663Z,12.23
2019-06-07T23:38:54.371Z,12.53
2019-06-07T23:41:22.877Z,12.33
2019-06-07T23:43:51.506Z,11.40
2019-06-07T23:46:20.024Z,12.30
2019-06-07T23:48:48.554Z,12.03
2019-06-07T23:51:17.700Z,12.23
2019-06-07T23:53:45.710Z,12.20
2019-06-07T23:56:14.255Z,14.47
2019-06-07T23:58:42.764Z,13.23
